Time;durP1;ratioP1;P1;durP2;ratioP2;P2;SDS_P1;SDS_P2;PMS_P1;PMS_P2;Temp;Humidity;BMP_temperature;BMP_pressure;BME280_temperature;BME280_humidity;BME280_pressure;Samples;Min_cycle;Max_cycle;Signal;HPM_P1;HPM_P2
2020/12/31 14:44:05;;;;;;;56.48;35.80;;;;;;;1.99;85.25;95655.48;1844274;77;22913;-84
2020/12/31 14:46:32;;;;;;;53.48;34.55;;;;;;;2.00;85.17;95657.09;1819165;77;21126;-83
2020/12/31 14:48:58;;;;;;;58.23;36.60;;;;;;;2.01;84.77;95659.98;1839784;77;21091;-85
2020/12/31 14:51:33;;;;;;;59.83;35.25;;;;;;;1.96;84.65;95667.31;1825485;78;21082;-84
2020/12/31 14:54:00;;;;;;;58.95;35.25;;;;;;;1.96;84.73;95656.59;1809270;78;21360;-84
2020/12/31 14:56:26;;;;;;;63.02;35.48;;;;;;;1.96;84.65;95655.78;1775873;78;21613;-84
2020/12/31 14:58:53;;;;;;;64.27;35.00;;;;;;;1.96;84.82;95658.34;1802534;78;21110;-84
2020/12/31 15:01:19;;;;;;;63.45;38.33;;;;;;;1.95;84.71;95663.95;1824321;78;21089;-84
2020/12/31 15:03:45;;;;;;;61.83;36.48;;;;;;;1.92;84.50;95660.37;1807537;78;21453;-84
2020/12/31 15:06:12;;;;;;;59.60;36.48;;;;;;;1.93;84.40;95668.38;1826724;78;21082;-84
2020/12/31 15:08:38;;;;;;;52.38;33.95;;;;;;;1.94;84.49;95661.03;1814301;78;21122;-84
2020/12/31 15:11:09;;;;;;;54.80;33.88;;;;;;;1.94;84.45;95667.91;1820575;78;21300;-84
2020/12/31 15:13:36;;;;;;;55.28;32.33;;;;;;;1.93;84.50;95667.10;1823280;78;21078;-85
2020/12/31 15:16:04;;;;;;;49.65;28.80;;;;;;;1.91;84.44;95669.01;1820100;78;21315;-84
2020/12/31 15:18:31;;;;;;;46.18;30.45;;;;;;;1.94;84.52;95669.19;1779095;78;21090;-85
2020/12/31 15:20:58;;;;;;;47.35;29.40;;;;;;;1.94;84.31;95673.84;1803071;78;21237;-84
2020/12/31 15:23:25;;;;;;;44.18;28.32;;;;;;;1.96;84.29;95669.88;1815808;78;21091;-84
2020/12/31 15:25:52;;;;;;;40.40;27.35;;;;;;;2.02;84.37;95669.28;1803882;78;21255;-84
2020/12/31 15:28:18;;;;;;;49.33;31.27;;;;;;;2.03;84.14;95670.89;1810512;78;21098;-84
2020/12/31 15:30:44;;;;;;;53.63;31.97;;;;;;;2.02;84.11;95673.92;1817923;78;21493;-84
2020/12/31 15:33:10;;;;;;;52.80;32.98;;;;;;;2.02;84.16;95667.52;1800122;78;21111;-84
2020/12/31 15:35:36;;;;;;;49.10;33.25;;;;;;;2.04;84.14;95672.50;1823821;78;21209;-83
2020/12/31 15:38:02;;;;;;;55.15;34.43;;;;;;;2.05;84.16;95672.83;1816922;78;21098;-84
2020/12/31 15:40:28;;;;;;;57.15;33.83;;;;;;;2.09;84.04;95675.42;1808902;78;21459;-84
2020/12/31 15:42:55;;;;;;;66.60;40.00;;;;;;;2.14;84.14;95677.09;1811963;78;21388;-84
2020/12/31 15:45:21;;;;;;;71.60;41.40;;;;;;;2.15;83.99;95676.61;1797750;79;21122;-85
2020/12/31 15:47:47;;;;;;;65.52;40.05;;;;;;;2.10;83.90;95679.59;1800780;79;21256;-85
2020/12/31 15:50:14;;;;;;;63.23;36.25;;;;;;;2.08;84.03;95682.78;1803776;79;21437;-84
2020/12/31 15:52:46;;;;;;;60.23;35.48;;;;;;;2.07;83.98;95677.33;1792732;79;21263;-84
2020/12/31 15:55:13;;;;;;;59.80;36.42;;;;;;;2.07;83.82;95674.77;1807308;79;21094;-84
2020/12/31 15:57:39;;;;;;;58.05;35.45;;;;;;;2.06;83.77;95675.72;1796178;79;21136;-83
2020/12/31 16:00:07;;;;;;;60.90;37.38;;;;;;;2.04;83.71;95675.86;1811087;79;21368;-84
2020/12/31 16:02:33;;;;;;;58.63;34.85;;;;;;;2.03;83.77;95665.77;1802888;79;21106;-84
2020/12/31 16:04:59;;;;;;;59.73;35.50;;;;;;;2.02;83.79;95670.56;1814120;79;21086;-83
2020/12/31 16:07:25;;;;;;;58.50;36.42;;;;;;;2.03;83.92;95665.77;1801648;79;21102;-84
2020/12/31 16:09:51;;;;;;;139.43;49.27;;;;;;;2.02;83.92;95666.23;1803872;79;21098;-83
2020/12/31 16:12:17;;;;;;;63.48;35.80;;;;;;;1.99;83.65;95667.82;1784606;79;21387;-84
2020/12/31 16:14:43;;;;;;;49.15;28.67;;;;;;;1.93;83.60;95665.02;1801456;79;21225;-83
2020/12/31 16:17:09;;;;;;;42.80;28.12;;;;;;;1.87;83.43;95668.98;1798028;79;21130;-83
2020/12/31 16:19:35;;;;;;;51.75;27.60;;;;;;;1.79;83.57;95673.56;1809215;79;21224;-85
2020/12/31 16:22:01;;;;;;;45.67;26.87;;;;;;;1.75;83.48;95682.45;1783322;79;21155;-83
2020/12/31 16:24:28;;;;;;;44.13;27.10;;;;;;;1.71;83.58;95682.90;1786982;79;21097;-84
2020/12/31 16:26:54;;;;;;;41.45;26.40;;;;;;;1.71;83.81;95681.63;1801069;79;21289;-83
2020/12/31 16:29:20;;;;;;;47.88;27.45;;;;;;;1.73;83.69;95686.92;1766514;79;21240;-84
2020/12/31 16:31:46;;;;;;;40.10;24.82;;;;;;;1.74;83.63;95678.77;1810149;79;21090;-84
2020/12/31 16:34:12;;;;;;;43.73;27.52;;;;;;;1.73;83.46;95681.00;1807987;79;21084;-84
2020/12/31 16:36:38;;;;;;;44.70;26.95;;;;;;;1.72;83.53;95681.47;1795107;79;21130;-84
2020/12/31 16:39:05;;;;;;;49.15;28.52;;;;;;;1.72;83.59;95681.95;1817514;77;21321;-84
2020/12/31 16:41:31;;;;;;;44.55;28.00;;;;;;;1.73;83.81;95677.96;1804858;79;21118;-84
2020/12/31 16:43:57;;;;;;;39.92;26.02;;;;;;;1.72;83.83;95675.55;1839362;77;21316;-84
2020/12/31 16:46:24;;;;;;;41.68;27.73;;;;;;;1.83;83.92;95678.39;1843449;77;21090;-84
2020/12/31 16:48:50;;;;;;;40.12;26.27;;;;;;;1.84;83.71;95678.23;1825750;77;21109;-85
2020/12/31 16:51:19;;;;;;;43.83;25.23;;;;;;;1.86;83.56;95681.45;1857477;77;21082;-84
2020/12/31 16:53:46;;;;;;;46.85;28.25;;;;;;;1.87;83.61;95682.27;1839125;77;21059;-84
2020/12/31 16:56:12;;;;;;;49.90;28.70;;;;;;;1.92;83.79;95679.58;1820557;77;21133;-85
2020/12/31 16:58:39;;;;;;;40.05;27.27;;;;;;;1.93;83.69;95686.80;1818487;78;21098;-85
2020/12/31 17:01:05;;;;;;;44.25;25.15;;;;;;;1.90;83.50;95680.69;1821027;78;21089;-84
2020/12/31 17:03:31;;;;;;;37.95;24.15;;;;;;;1.86;83.34;95683.22;1819589;78;21088;-85
2020/12/31 17:05:57;;;;;;;35.75;22.70;;;;;;;1.85;83.29;95681.13;1839784;77;21094;-84
2020/12/31 17:08:24;;;;;;;33.63;21.82;;;;;;;1.84;83.09;95683.84;1823156;79;21113;-85
2020/12/31 17:10:50;;;;;;;37.45;23.42;;;;;;;1.78;83.01;95684.72;1792281;79;21102;-84
2020/12/31 17:13:16;;;;;;;37.13;25.25;;;;;;;1.75;83.06;95687.58;1785895;79;21130;-85
2020/12/31 17:15:42;;;;;;;44.98;26.27;;;;;;;1.74;83.31;95685.97;1801880;77;21322;-82
2020/12/31 17:18:08;;;;;;;45.40;27.62;;;;;;;1.73;83.34;95677.16;1854276;77;21441;-84
2020/12/31 17:20:34;;;;;;;43.63;28.15;;;;;;;1.71;83.50;95685.46;1791246;79;21147;-84
2020/12/31 17:23:01;;;;;;;46.65;27.73;;;;;;;1.73;83.39;95686.13;1832828;78;21454;-84
2020/12/31 17:25:27;;;;;;;43.38;27.42;;;;;;;1.77;83.47;95689.99;1834161;78;21311;-84
2020/12/31 17:27:53;;;;;;;41.85;27.55;;;;;;;1.78;83.34;95686.01;1826149;78;21219;-84
2020/12/31 17:30:19;;;;;;;43.83;27.87;;;;;;;1.79;83.29;95684.28;1819314;78;21334;-84
2020/12/31 17:32:45;;;;;;;44.80;28.38;;;;;;;1.77;83.31;95684.88;1816154;78;21093;-84
2020/12/31 17:35:11;;;;;;;45.08;27.98;;;;;;;1.74;83.30;95686.45;1822274;79;21090;-85
2020/12/31 17:37:38;;;;;;;44.95;28.73;;;;;;;1.71;83.39;95683.70;1808866;77;21114;-84
2020/12/31 17:40:05;;;;;;;49.00;28.70;;;;;;;1.66;83.38;95680.78;1833495;78;21112;-85
2020/12/31 17:42:31;;;;;;;46.20;26.90;;;;;;;1.67;83.47;95683.67;1822454;78;21146;-85
2020/12/31 17:44:57;;;;;;;44.08;27.82;;;;;;;1.70;83.48;95674.89;1819074;78;21200;-85
2020/12/31 17:47:24;;;;;;;44.95;27.75;;;;;;;1.73;83.48;95675.88;1814089;78;21124;-84
2020/12/31 17:49:50;;;;;;;47.30;28.95;;;;;;;1.76;83.48;95675.58;1814088;78;21097;-85
2020/12/31 17:52:18;;;;;;;42.50;27.98;;;;;;;1.77;83.38;95674.63;1825753;78;21254;-86
2020/12/31 17:54:45;;;;;;;41.73;26.97;;;;;;;1.75;83.32;95680.37;1821446;78;21118;-85
2020/12/31 17:57:11;;;;;;;44.70;28.87;;;;;;;1.75;83.29;95681.66;1824788;78;21235;-85
2020/12/31 17:59:38;;;;;;;43.35;28.67;;;;;;;1.71;83.36;95676.02;1814983;78;21117;-85
2020/12/31 18:02:04;;;;;;;44.10;26.05;;;;;;;1.70;83.10;95673.61;1823152;78;21360;-85
2020/12/31 18:04:30;;;;;;;43.02;26.17;;;;;;;1.67;82.95;95677.27;1822650;78;21421;-85
2020/12/31 18:06:56;;;;;;;42.03;26.73;;;;;;;1.66;82.87;95671.01;1820713;78;21094;-85
2020/12/31 18:09:22;;;;;;;40.90;27.27;;;;;;;1.67;82.96;95673.90;1816222;78;21128;-84
2020/12/31 18:11:49;;;;;;;46.98;30.35;;;;;;;1.63;82.88;95672.59;1823897;78;21113;-85
2020/12/31 18:14:23;;;;;;;50.25;30.75;;;;;;;1.63;83.07;95676.42;1824000;78;21247;-84
2020/12/31 18:16:46;;;;;;;57.80;33.30;;;;;;;1.63;83.11;95680.27;1810380;78;21098;-85
2020/12/31 18:19:14;;;;;;;54.08;33.40;;;;;;;1.63;83.21;95682.83;1825483;78;21085;-85
2020/12/31 18:21:41;;;;;;;52.88;31.82;;;;;;;1.63;83.14;95676.42;1817311;78;21378;-84
2020/12/31 18:24:07;;;;;;;49.83;30.08;;;;;;;1.69;83.15;95680.96;1813055;78;21070;-84
2020/12/31 18:26:33;;;;;;;55.65;30.85;;;;;;;1.70;83.06;95680.01;1824386;78;21239;-85
2020/12/31 18:28:59;;;;;;;53.87;33.55;;;;;;;1.67;82.89;95677.27;1809049;78;21113;-84
2020/12/31 18:31:25;;;;;;;57.98;35.00;;;;;;;1.61;82.86;95680.38;1814017;78;21228;-85
2020/12/31 18:33:52;;;;;;;54.23;31.97;;;;;;;1.60;83.06;95681.33;1829258;78;21081;-85
2020/12/31 18:36:21;;;;;;;70.32;36.73;;;;;;;1.61;83.20;95679.10;1814944;78;21259;-84
2020/12/31 18:38:48;;;;;;;56.20;33.23;;;;;;;1.61;83.20;95681.66;1805962;78;21348;-84
2020/12/31 18:41:22;;;;;;;53.70;32.90;;;;;;;1.62;83.20;95678.63;1803262;78;21240;-85
2020/12/31 18:43:48;;;;;;;56.73;30.97;;;;;;;1.66;83.09;95675.66;1811399;78;21145;-83
2020/12/31 18:46:14;;;;;;;56.02;33.10;;;;;;;1.71;83.11;95673.46;1815917;78;21141;-84
2020/12/31 18:48:42;;;;;;;60.98;33.18;;;;;;;1.75;83.24;95679.90;1818963;78;21298;-83
2020/12/31 18:51:09;;;;;;;56.13;34.70;;;;;;;1.72;82.76;95680.67;1817841;78;21431;-85
2020/12/31 18:53:35;;;;;;;53.50;31.82;;;;;;;1.61;82.67;95679.10;1824727;78;21353;-85
2020/12/31 18:56:01;;;;;;;58.10;32.95;;;;;;;1.58;82.96;95675.55;1800681;78;21256;-85
2020/12/31 18:58:27;;;;;;;57.55;32.25;;;;;;;1.58;82.93;95678.59;1809352;78;21096;-86
2020/12/31 19:00:53;;;;;;;58.40;32.40;;;;;;;1.55;82.77;95673.76;1805297;78;21331;-85
2020/12/31 19:03:19;;;;;;;54.98;32.48;;;;;;;1.54;82.81;95676.80;1802369;78;21109;-84
2020/12/31 19:05:45;;;;;;;57.88;31.70;;;;;;;1.51;82.72;95674.53;1813840;78;21490;-85
2020/12/31 19:08:12;;;;;;;59.23;32.23;;;;;;;1.48;82.83;95674.34;1824750;78;21458;-85
2020/12/31 19:10:39;;;;;;;63.00;33.92;;;;;;;1.48;82.95;95665.38;1814135;77;21524;-83
2020/12/31 19:13:06;;;;;;;50.00;29.82;;;;;;;1.46;82.97;95667.73;1842165;77;21110;-84
2020/12/31 19:15:32;;;;;;;55.15;31.12;;;;;;;1.41;83.09;95668.64;1775073;77;21110;-84
2020/12/31 19:17:58;;;;;;;58.60;33.50;;;;;;;1.38;83.01;95672.77;1811579;78;21316;-84
2020/12/31 19:20:25;;;;;;;64.45;36.28;;;;;;;1.39;83.16;95667.50;1804572;78;21110;-85
2020/12/31 19:22:52;;;;;;;63.83;37.33;;;;;;;1.38;83.11;95662.53;1808379;78;21109;-85
2020/12/31 19:25:23;;;;;;;59.35;34.58;;;;;;;1.35;83.18;95667.94;1805673;78;21117;-84
2020/12/31 19:27:52;;;;;;;58.30;34.35;;;;;;;1.35;83.37;95666.66;1809494;78;21122;-84
2020/12/31 19:30:20;;;;;;;55.43;32.75;;;;;;;1.35;83.51;95667.47;1780392;78;21115;-84
2020/12/31 19:32:46;;;;;;;50.83;30.48;;;;;;;1.38;83.54;95662.05;1773402;77;21414;-84
2020/12/31 19:35:13;;;;;;;49.25;30.32;;;;;;;1.41;83.22;95669.92;1815297;79;21145;-83
2020/12/31 19:37:41;;;;;;;45.60;29.05;;;;;;;1.43;83.14;95662.91;1824270;78;21102;-84
2020/12/31 19:40:10;;;;;;;49.75;28.65;;;;;;;1.43;83.16;95664.98;1808266;78;21529;-83
2020/12/31 19:42:37;;;;;;;55.92;31.68;;;;;;;1.45;83.07;95665.64;1808196;78;21118;-84
2020/12/31 19:45:07;;;;;;;59.85;31.40;;;;;;;1.40;82.99;95658.88;1810959;78;21110;-83
2020/12/31 19:47:35;;;;;;;55.20;32.98;;;;;;;1.37;83.12;95666.84;1803824;79;21455;-83
2020/12/31 19:50:09;;;;;;;65.62;36.20;;;;;;;1.35;82.97;95666.66;1809267;79;21121;-83
2020/12/31 19:52:35;;;;;;;59.20;33.88;;;;;;;1.33;82.94;95669.84;1784425;79;21236;-83
2020/12/31 19:55:02;;;;;;;56.80;32.28;;;;;;;1.32;83.07;95667.75;1811353;78;21110;-84
2020/12/31 19:57:28;;;;;;;59.90;33.67;;;;;;;1.35;83.17;95667.94;1778212;80;21223;-84
2020/12/31 19:59:54;;;;;;;61.45;35.00;;;;;;;1.35;83.00;95676.90;1787954;78;21110;-84
2020/12/31 20:02:20;;;;;;;55.03;33.00;;;;;;;1.28;82.96;95668.16;1791013;80;21139;-83
2020/12/31 20:04:46;;;;;;;54.08;29.48;;;;;;;1.27;83.17;95679.34;1789541;79;21388;-83
2020/12/31 20:07:12;;;;;;;44.42;26.82;;;;;;;1.30;83.18;95672.66;1781987;79;21402;-83
2020/12/31 20:09:39;;;;;;;59.38;32.20;;;;;;;1.29;82.85;95677.45;1788884;80;21288;-83
2020/12/31 20:12:06;;;;;;;62.27;33.95;;;;;;;1.19;82.84;95671.91;1775328;79;21250;-83
2020/12/31 20:14:36;;;;;;;54.70;30.95;;;;;;;1.18;83.09;95675.42;1777495;79;21106;-83
2020/12/31 20:27:35;;;;;;;53.25;31.65;;;;;;;1.22;83.22;95671.30;1835135;77;23078;-82
2020/12/31 20:30:19;;;;;;;;;;;;;;;;;;;;;
2020/12/31 20:43:15;;;;;;;59.45;33.25;;;;;;;1.04;83.44;95683.55;1824706;77;23011;-83
2020/12/31 20:45:59;;;;;;;56.75;34.20;;;;;;;1.04;83.37;95682.27;1756416;80;21098;-83
2020/12/31 20:48:30;;;;;;;66.67;35.98;;;;;;;0.97;83.26;95686.80;1762955;80;21113;-84
2020/12/31 20:50:58;;;;;;;73.00;37.65;;;;;;;1.00;83.47;95681.42;1791142;78;21143;-84
2020/12/31 20:53:24;;;;;;;64.22;35.80;;;;;;;1.01;83.60;95686.87;1782710;80;21124;-84
2020/12/31 20:55:50;;;;;;;55.92;33.30;;;;;;;1.02;83.48;95683.36;1786914;79;21127;-83
2020/12/31 20:58:16;;;;;;;59.40;34.50;;;;;;;1.06;83.51;95688.05;1785475;79;21122;-82
2020/12/31 21:00:42;;;;;;;56.10;32.05;;;;;;;1.07;83.21;95684.55;1779123;79;21137;-82
2020/12/31 21:03:08;;;;;;;52.67;31.37;;;;;;;1.02;82.83;95688.01;1774028;79;21082;-85
2020/12/31 21:05:35;;;;;;;62.23;35.88;;;;;;;0.96;82.90;95688.55;1771478;79;21113;-83
2020/12/31 21:08:01;;;;;;;61.30;35.33;;;;;;;0.89;83.18;95685.75;1791317;79;21465;-82
2020/12/31 21:10:29;;;;;;;53.60;31.40;;;;;;;0.87;83.18;95688.92;1777631;79;21134;-83
2020/12/31 21:12:55;;;;;;;52.80;31.97;;;;;;;0.88;83.22;95685.89;1782096;80;21347;-82
2020/12/31 21:15:21;;;;;;;60.08;33.05;;;;;;;0.87;82.99;95685.56;1785715;79;21128;-84
2020/12/31 21:17:49;;;;;;;58.25;31.70;;;;;;;0.89;83.13;95684.94;1783109;79;21100;-84
2020/12/31 21:20:15;;;;;;;53.87;31.68;;;;;;;0.90;83.15;95687.83;1790327;79;21129;-84
2020/12/31 21:22:41;;;;;;;56.20;31.07;;;;;;;0.82;82.94;95692.84;1794098;79;21109;-83
2020/12/31 21:25:08;;;;;;;52.08;31.15;;;;;;;0.75;82.95;95690.49;1792967;79;21094;-84
2020/12/31 21:27:37;;;;;;;52.05;31.00;;;;;;;0.65;82.66;95686.70;1759270;80;21144;-84
2020/12/31 21:30:05;;;;;;;54.03;30.10;;;;;;;0.63;82.89;95690.31;1802545;78;21375;-82
2020/12/31 21:32:32;;;;;;;53.13;30.65;;;;;;;0.60;83.07;95687.56;1807535;78;21113;-83
2020/12/31 21:35:01;;;;;;;49.75;29.42;;;;;;;0.60;83.30;95687.09;1809711;78;21100;-82
2020/12/31 21:37:27;;;;;;;52.58;29.82;;;;;;;0.64;83.27;95686.80;1824748;78;21152;-84
2020/12/31 21:39:53;;;;;;;52.55;29.92;;;;;;;0.61;83.19;95677.66;1751381;80;21087;-83
2020/12/31 21:42:19;;;;;;;50.20;30.80;;;;;;;0.62;83.21;95677.19;1773028;79;21350;-83
2020/12/31 21:44:45;;;;;;;54.05;30.77;;;;;;;0.63;83.33;95676.25;1813534;78;21128;-83
2020/12/31 21:47:11;;;;;;;49.85;28.25;;;;;;;0.62;83.10;95674.64;1834817;78;21137;-82
2020/12/31 21:49:38;;;;;;;41.13;25.30;;;;;;;0.56;83.06;95670.41;1834730;78;21093;-83
2020/12/31 21:52:08;;;;;;;47.38;27.20;;;;;;;0.54;83.18;95669.75;1811879;78;21121;-83
2020/12/31 21:54:35;;;;;;;45.67;27.07;;;;;;;0.58;83.20;95664.69;1805337;78;21081;-83
2020/12/31 21:57:04;;;;;;;66.45;38.15;;;;;;;0.65;83.25;95666.24;1803151;78;21144;-82
2020/12/31 21:59:30;;;;;;;55.75;32.42;;;;;;;0.64;82.84;95664.60;1803853;78;21129;-82
2020/12/31 22:01:56;;;;;;;52.23;31.55;;;;;;;0.62;82.77;95664.41;1809079;78;21085;-82
2020/12/31 22:04:23;;;;;;;52.33;30.62;;;;;;;0.58;82.81;95666.44;1808293;78;21121;-82
2020/12/31 22:06:50;;;;;;;56.55;32.73;;;;;;;0.60;82.79;95663.27;1796246;78;21225;-82
2020/12/31 22:09:18;;;;;;;53.52;31.23;;;;;;;0.64;82.86;95664.60;1804397;78;21105;-82
2020/12/31 22:11:44;;;;;;;59.42;34.35;;;;;;;0.68;82.70;95666.44;1788524;80;21113;-83
2020/12/31 22:14:11;;;;;;;60.23;34.03;;;;;;;0.65;82.77;95660.30;1805904;78;21137;-82
2020/12/31 22:16:38;;;;;;;60.75;36.68;;;;;;;0.63;82.81;95662.19;1793835;80;21446;-82
2020/12/31 22:19:05;;;;;;;57.23;33.08;;;;;;;0.65;82.92;95664.97;1793722;79;21125;-83
2020/12/31 22:21:31;;;;;;;54.42;29.92;;;;;;;0.63;82.60;95662.98;1828142;78;21102;-82
2020/12/31 22:23:58;;;;;;;53.30;31.48;;;;;;;0.62;82.69;95661.85;1827606;78;21069;-83
2020/12/31 22:26:24;;;;;;;58.40;32.83;;;;;;;0.62;82.77;95658.02;1815282;78;21110;-83
2020/12/31 22:28:51;;;;;;;55.63;30.92;;;;;;;0.60;82.79;95659.44;1800567;78;21356;-82
2020/12/31 22:31:17;;;;;;;54.58;30.70;;;;;;;0.60;82.99;95653.85;1834566;78;21093;-82
2020/12/31 22:33:46;;;;;;;54.88;31.97;;;;;;;0.63;82.90;95652.77;1821350;78;21149;-82
2020/12/31 22:36:12;;;;;;;51.10;29.95;;;;;;;0.66;82.89;95652.52;1799003;78;21458;-82
2020/12/31 22:38:38;;;;;;;52.65;31.07;;;;;;;0.67;82.78;95650.28;1804286;78;21105;-82
2020/12/31 22:41:04;;;;;;;53.92;30.10;;;;;;;0.63;82.65;95643.81;1807541;78;21097;-82
2020/12/31 22:43:30;;;;;;;51.95;29.37;;;;;;;0.58;82.65;95644.23;1792824;79;21105;-82
2020/12/31 22:45:57;;;;;;;53.95;29.45;;;;;;;0.57;82.75;95643.10;1830954;78;21101;-82
2020/12/31 22:48:23;;;;;;;43.92;26.55;;;;;;;0.55;82.62;95643.24;1805146;78;21081;-83
2020/12/31 22:50:51;;;;;;;54.10;31.65;;;;;;;0.55;82.51;95646.27;1797970;78;21394;-82
2020/12/31 22:53:17;;;;;;;72.17;38.55;;;;;;;0.55;82.58;95644.99;1792040;78;21415;-82
2020/12/31 22:55:43;;;;;;;57.93;30.48;;;;;;;0.51;82.74;95641.91;1813705;78;21573;-82
2020/12/31 22:58:09;;;;;;;50.73;28.70;;;;;;;0.50;82.73;95638.22;1802032;78;21117;-84
2020/12/31 23:00:40;;;;;;;46.25;27.20;;;;;;;0.49;82.68;95638.70;1787555;78;21112;-83
2020/12/31 23:03:06;;;;;;;45.12;28.05;;;;;;;0.50;82.65;95639.50;1796242;78;21101;-83
2020/12/31 23:05:33;;;;;;;50.33;28.65;;;;;;;0.49;82.51;95641.25;1784430;80;21125;-83
2020/12/31 23:07:59;;;;;;;45.35;26.73;;;;;;;0.48;82.61;95645.20;1814235;78;21102;-82
2020/12/31 23:10:26;;;;;;;47.67;27.82;;;;;;;0.47;82.63;95643.58;1797832;78;21347;-84
2020/12/31 23:12:52;;;;;;;54.35;29.85;;;;;;;0.45;82.64;95640.36;1791275;79;21247;-82
2020/12/31 23:15:18;;;;;;;47.05;26.33;;;;;;;0.42;82.55;95632.50;1785689;79;21132;-83
2020/12/31 23:17:44;;;;;;;47.48;28.62;;;;;;;0.42;82.58;95635.06;1787905;79;21113;-82
2020/12/31 23:20:11;;;;;;;46.98;25.55;;;;;;;0.41;82.51;95630.89;1783997;79;21109;-84
2020/12/31 23:22:50;;;;;;;47.67;28.30;;;;;;;0.39;82.41;95630.70;1796189;78;21129;-83
2020/12/31 23:25:18;;;;;;;44.63;26.95;;;;;;;0.39;82.45;95633.25;1817476;78;21086;-83
2020/12/31 23:27:52;;;;;;;47.78;26.55;;;;;;;0.40;82.37;95631.84;1790149;79;21339;-83
2020/12/31 23:30:20;;;;;;;51.75;30.32;;;;;;;0.41;82.42;95629.61;1785218;79;21341;-82
2020/12/31 23:32:47;;;;;;;56.23;32.05;;;;;;;0.41;82.40;95626.25;1780968;79;21126;-83
2020/12/31 23:35:13;;;;;;;57.43;30.80;;;;;;;0.42;82.47;95627.86;1796064;79;21075;-83
2020/12/31 23:37:40;;;;;;;49.03;28.83;;;;;;;0.39;82.37;95628.14;1796803;79;21137;-82
2020/12/31 23:40:08;;;;;;;55.23;32.08;;;;;;;0.42;82.50;95624.83;1791683;78;21287;-82
2020/12/31 23:42:37;;;;;;;63.40;36.83;;;;;;;0.45;82.34;95626.30;1782087;78;21358;-83
2020/12/31 23:45:06;;;;;;;61.75;34.33;;;;;;;0.40;82.05;95624.17;1792911;78;21108;-83
2020/12/31 23:47:43;;;;;;;60.88;35.08;;;;;;;0.36;82.20;95624.59;1762819;79;21143;-82
2020/12/31 23:50:13;;;;;;;56.13;33.90;;;;;;;0.33;82.04;95616.73;1784891;78;21633;-82
2020/12/31 23:52:39;;;;;;;62.53;36.93;;;;;;;0.34;82.18;95620.09;1790514;78;21113;-83
2020/12/31 23:55:07;;;;;;;77.12;44.45;;;;;;;0.33;82.01;95618.48;1787788;79;21250;-83
2020/12/31 23:57:44;;;;;;;68.85;41.95;;;;;;;0.31;82.06;95619.87;1792458;78;21125;-83
